Atlantic Beach, North Carolina
Current Conditions -  °F | °C
As of 3:15 PM on Monday 24 Nov 2014 (Local Time) from KMRH Reporting Station
Haze Haze  
Wind Chill: 19°   Ceiling: 900
Heat Index: 19°   Visibility: 3mi
Dew Point: 19°   Wind: 10mph
Humidity: 97%   Direction: 200°SSW
Pressure: 29.88"   Gusts: NA
Location:  34.7°N, 76.74°W
Report Text: KMRH 242015Z AUTO 20009KT 3SM BR BKN009 OVC100 19/19 A2988 RMK AO2 T01940189 TSNO
Loading
Personal Weather Stations






























Interactive Weather Map New forecast layout! Learn more

10-Day Weather Forecast

Advertisements
Track Severe Weather on mobile